createdAt,value
2018-01-17T00:01:51.739Z,4.18
2018-01-17T00:04:20.961Z,4.11
2018-01-17T00:06:51.055Z,4.12
2018-01-17T00:09:21.038Z,4.14
2018-01-17T00:11:50.315Z,4.12
2018-01-17T00:14:19.518Z,4.11
2018-01-17T00:16:48.732Z,4.15
2018-01-17T00:19:17.914Z,4.08
2018-01-17T00:21:47.300Z,4.08
2018-01-17T00:24:16.440Z,4.09
2018-01-17T00:26:45.749Z,4.05
2018-01-17T00:29:14.974Z,4.06
2018-01-17T00:31:44.198Z,4.03
2018-01-17T00:34:13.442Z,4.02
2018-01-17T00:36:42.644Z,4.01
2018-01-17T00:39:11.877Z,4.04
2018-01-17T00:41:41.943Z,4.05
2018-01-17T00:44:11.141Z,4.08
2018-01-17T00:46:40.339Z,4.11
2018-01-17T00:49:09.542Z,4.13
2018-01-17T00:51:38.763Z,4.16
2018-01-17T00:54:08.021Z,4.17
2018-01-17T00:56:37.219Z,4.19
2018-01-17T00:59:06.435Z,4.24
2018-01-17T01:01:35.653Z,4.31
2018-01-17T01:04:06.378Z,4.35
2018-01-17T01:06:35.582Z,4.39
2018-01-17T01:09:04.950Z,4.39
2018-01-17T01:11:34.144Z,4.40
2018-01-17T01:14:03.347Z,4.41
2018-01-17T01:16:32.559Z,4.40
2018-01-17T01:19:01.977Z,4.48
2018-01-17T01:21:31.184Z,4.49
2018-01-17T01:24:00.645Z,4.46
2018-01-17T01:26:29.978Z,4.48
2018-01-17T01:28:59.219Z,4.49
2018-01-17T01:31:28.426Z,4.54
2018-01-17T01:33:57.692Z,4.53
2018-01-17T01:36:26.944Z,4.52
2018-01-17T01:38:56.226Z,4.55
2018-01-17T01:41:25.574Z,4.60
2018-01-17T01:43:54.929Z,4.61
2018-01-17T01:46:24.156Z,4.66
2018-01-17T01:49:01.965Z,4.59
2018-01-17T01:51:31.205Z,4.52
2018-01-17T01:54:00.399Z,4.43
2018-01-17T01:56:29.624Z,4.38
2018-01-17T01:58:58.843Z,4.30
2018-01-17T02:01:28.043Z,4.33
2018-01-17T02:03:57.218Z,4.29
2018-01-17T02:06:27.354Z,4.10
2018-01-17T02:08:56.553Z,3.70
2018-01-17T02:11:25.797Z,3.51
2018-01-17T02:13:55.750Z,3.38
2018-01-17T02:16:24.967Z,3.25
2018-01-17T02:18:54.246Z,3.25
2018-01-17T02:21:23.532Z,3.25
2018-01-17T02:23:52.746Z,3.05
2018-01-17T02:26:21.951Z,2.69
2018-01-17T02:28:51.237Z,2.32
2018-01-17T02:31:21.158Z,2.20
2018-01-17T02:33:50.451Z,2.13
2018-01-17T02:36:20.510Z,2.08
2018-01-17T02:38:49.732Z,2.03
2018-01-17T02:41:19.705Z,2.03
2018-01-17T02:43:48.927Z,2.00
2018-01-17T02:46:18.107Z,1.98
2018-01-17T02:48:48.045Z,2.03
2018-01-17T02:51:17.320Z,2.05
2018-01-17T02:53:46.529Z,2.09
2018-01-17T02:56:17.195Z,2.12
2018-01-17T02:58:47.151Z,2.11
2018-01-17T03:01:16.355Z,2.16
2018-01-17T03:03:45.582Z,2.21
2018-01-17T03:06:15.562Z,2.20
2018-01-17T03:08:44.768Z,2.23
2018-01-17T03:11:13.941Z,2.26
2018-01-17T03:13:43.220Z,2.31
2018-01-17T03:16:12.403Z,2.25
2018-01-17T03:18:41.602Z,2.23
2018-01-17T03:21:10.815Z,2.24
2018-01-17T03:23:39.994Z,2.25
2018-01-17T03:26:09.198Z,2.32
2018-01-17T03:28:38.393Z,2.33
2018-01-17T03:31:07.635Z,2.34
2018-01-17T03:33:36.862Z,2.29
2018-01-17T03:36:06.041Z,2.32
2018-01-17T03:38:35.266Z,2.39
2018-01-17T03:41:05.278Z,2.36
2018-01-17T03:43:35.333Z,2.31
2018-01-17T03:46:04.534Z,2.32
2018-01-17T03:48:33.798Z,2.32
2018-01-17T03:51:03.750Z,2.34
2018-01-17T03:53:32.958Z,2.36
2018-01-17T03:56:02.151Z,2.38
2018-01-17T03:58:31.337Z,2.39
2018-01-17T04:01:00.522Z,2.42
2018-01-17T04:03:29.753Z,2.38
2018-01-17T04:05:58.949Z,2.39
2018-01-17T04:08:28.152Z,2.36
2018-01-17T04:10:58.131Z,2.40
2018-01-17T04:13:28.197Z,2.45
2018-01-17T04:15:57.391Z,2.40
2018-01-17T04:18:26.626Z,2.40
2018-01-17T04:20:55.894Z,2.42
2018-01-17T04:23:25.114Z,2.45
2018-01-17T04:25:55.178Z,2.47
2018-01-17T04:28:24.355Z,2.46
2018-01-17T04:30:53.570Z,2.45
2018-01-17T04:33:22.807Z,2.52
2018-01-17T04:35:52.047Z,2.48
2018-01-17T04:38:21.290Z,2.52
2018-01-17T04:40:50.506Z,2.53
2018-01-17T04:43:19.726Z,2.52
2018-01-17T04:45:49.691Z,2.53
2018-01-17T04:48:18.874Z,2.51
2018-01-17T04:50:48.243Z,2.53
2018-01-17T04:53:18.195Z,2.52
2018-01-17T04:55:47.575Z,2.54
2018-01-17T04:58:16.767Z,2.56
2018-01-17T05:00:46.010Z,2.54
2018-01-17T05:03:15.242Z,2.53
2018-01-17T05:05:45.208Z,2.56
2018-01-17T05:08:14.409Z,2.52
2018-01-17T05:10:43.591Z,2.47
2018-01-17T05:13:12.805Z,2.43
2018-01-17T05:15:42.046Z,2.37
2018-01-17T05:18:12.042Z,2.33
2018-01-17T05:20:41.249Z,2.39
2018-01-17T05:23:11.225Z,2.44
2018-01-17T05:25:40.389Z,2.44
2018-01-17T05:28:09.635Z,2.41
2018-01-17T05:30:38.773Z,2.47
2018-01-17T05:33:08.061Z,2.42
2018-01-17T05:35:38.034Z,2.41
2018-01-17T05:38:07.237Z,2.43
2018-01-17T05:40:36.434Z,2.41
2018-01-17T05:43:05.637Z,2.43
2018-01-17T05:45:34.850Z,2.47
2018-01-17T05:48:04.058Z,2.53
2018-01-17T05:50:34.048Z,2.47
2018-01-17T05:53:03.233Z,2.44
2018-01-17T05:55:32.449Z,2.46
2018-01-17T05:58:01.653Z,2.47
2018-01-17T06:00:30.892Z,2.46
2018-01-17T06:03:00.090Z,2.41
2018-01-17T06:05:29.298Z,2.37
2018-01-17T06:07:58.478Z,2.37
2018-01-17T06:10:27.733Z,2.37
2018-01-17T06:12:56.913Z,2.36
2018-01-17T06:15:26.136Z,2.33
2018-01-17T06:17:55.445Z,2.34
2018-01-17T06:20:25.409Z,2.34
2018-01-17T06:22:54.625Z,2.35
2018-01-17T06:25:23.840Z,2.30
2018-01-17T06:27:53.062Z,2.30
2018-01-17T06:30:23.023Z,2.28
2018-01-17T06:32:52.254Z,2.30
2018-01-17T06:35:21.477Z,2.30
2018-01-17T06:37:51.471Z,2.33
2018-01-17T06:40:20.691Z,2.37
2018-01-17T06:42:50.109Z,2.38
2018-01-17T06:45:19.332Z,2.38
2018-01-17T06:47:48.570Z,2.40
2018-01-17T06:50:17.845Z,2.39
2018-01-17T06:52:47.075Z,2.44
2018-01-17T06:55:17.048Z,2.45
2018-01-17T06:57:46.382Z,2.42
2018-01-17T07:00:17.099Z,2.43
2018-01-17T07:02:46.322Z,2.38
2018-01-17T07:05:15.518Z,2.42
2018-01-17T07:07:44.747Z,2.38
2018-01-17T07:10:13.954Z,2.36
2018-01-17T07:12:43.152Z,2.38
2018-01-17T07:15:12.401Z,2.39
2018-01-17T07:17:42.370Z,2.38
2018-01-17T07:20:11.577Z,2.38
2018-01-17T07:22:40.801Z,2.38
2018-01-17T07:25:11.693Z,2.37
2018-01-17T07:27:41.618Z,2.30
2018-01-17T07:30:10.841Z,2.31
2018-01-17T07:32:40.047Z,2.31
2018-01-17T07:35:09.262Z,2.34
2018-01-17T07:37:39.277Z,2.36
2018-01-17T07:40:09.274Z,2.31
2018-01-17T07:42:40.019Z,2.28
2018-01-17T07:45:10.024Z,2.28
2018-01-17T07:47:40.830Z,2.31
2018-01-17T07:50:10.105Z,2.31
2018-01-17T07:52:39.343Z,2.35
2018-01-17T07:55:08.555Z,2.40
2018-01-17T07:57:37.779Z,2.40
2018-01-17T08:00:07.761Z,2.42
2018-01-17T08:02:37.854Z,2.44
2018-01-17T08:05:07.071Z,2.50
2018-01-17T08:07:36.307Z,2.48
2018-01-17T08:10:06.342Z,2.48
2018-01-17T08:12:35.720Z,2.48
2018-01-17T08:15:05.876Z,2.49
2018-01-17T08:17:35.076Z,2.50
2018-01-17T08:20:04.318Z,2.49
2018-01-17T08:22:33.501Z,2.48
2018-01-17T08:25:02.727Z,2.47
2018-01-17T08:27:32.764Z,2.41
2018-01-17T08:30:02.169Z,2.39
2018-01-17T08:32:32.146Z,2.31
2018-01-17T08:35:02.135Z,2.30
2018-01-17T08:37:31.423Z,2.24
2018-01-17T08:40:00.623Z,2.19
2018-01-17T08:42:29.967Z,2.15
2018-01-17T08:44:59.203Z,2.11
2018-01-17T08:47:28.434Z,2.05
2018-01-17T08:49:57.650Z,2.06
2018-01-17T08:52:26.857Z,2.06
2018-01-17T08:54:56.195Z,2.09
2018-01-17T08:57:25.412Z,2.10
2018-01-17T08:59:54.615Z,2.09
2018-01-17T09:02:23.929Z,2.13
2018-01-17T09:04:53.138Z,2.18
2018-01-17T09:07:22.359Z,2.14
2018-01-17T09:09:52.359Z,2.15
2018-01-17T09:12:21.682Z,2.16
2018-01-17T09:14:50.906Z,2.17
2018-01-17T09:17:20.417Z,2.14
2018-01-17T09:19:50.463Z,2.19
2018-01-17T09:22:19.761Z,2.23
2018-01-17T09:24:49.021Z,2.24
2018-01-17T09:27:18.241Z,2.17
2018-01-17T09:29:47.450Z,2.22
2018-01-17T09:32:16.722Z,2.20
2018-01-17T09:34:45.970Z,2.24
2018-01-17T09:37:15.172Z,2.30
2018-01-17T09:39:45.161Z,2.29
2018-01-17T09:42:14.391Z,2.30
2018-01-17T09:44:43.608Z,2.29
2018-01-17T09:47:12.830Z,2.36
2018-01-17T09:49:42.105Z,2.42
2018-01-17T09:52:11.387Z,2.44
2018-01-17T09:54:41.397Z,2.47
2018-01-17T09:57:12.117Z,2.50
2018-01-17T09:59:41.511Z,2.54
2018-01-17T10:02:10.684Z,2.60
2018-01-17T10:04:39.902Z,2.65
2018-01-17T10:07:09.098Z,2.65
2018-01-17T10:09:38.303Z,2.65
2018-01-17T10:12:07.518Z,2.62
2018-01-17T10:14:36.734Z,2.57
2018-01-17T10:17:06.752Z,2.53
2018-01-17T10:19:36.739Z,2.57
2018-01-17T10:22:06.140Z,2.56
2018-01-17T10:24:35.378Z,2.60
2018-01-17T10:27:04.584Z,2.65
2018-01-17T10:29:33.788Z,2.70
2018-01-17T10:32:02.981Z,2.72
2018-01-17T10:34:32.275Z,2.72
2018-01-17T10:50:01.566Z,2.79
2018-01-17T10:52:30.807Z,2.80
2018-01-17T10:55:00.054Z,2.84
2018-01-17T10:57:30.324Z,2.87
2018-01-17T10:59:59.566Z,2.92
2018-01-17T11:02:28.802Z,2.97
2018-01-17T11:04:58.063Z,3.05
2018-01-17T11:07:27.296Z,3.07
2018-01-17T11:09:56.560Z,3.09
2018-01-17T11:12:25.949Z,3.10
2018-01-17T11:14:56.014Z,3.13
2018-01-17T11:17:25.236Z,3.15
2018-01-17T11:19:55.261Z,3.20
2018-01-17T11:22:25.278Z,3.20
2018-01-17T11:24:54.554Z,3.20
2018-01-17T11:27:23.795Z,3.20
2018-01-17T11:29:53.071Z,3.24
2018-01-17T11:32:22.315Z,3.27
2018-01-17T11:34:51.608Z,3.30
2018-01-17T11:37:20.821Z,3.30
2018-01-17T11:39:50.016Z,3.34
2018-01-17T11:42:19.276Z,3.35
2018-01-17T11:44:49.246Z,3.39
2018-01-17T11:47:18.492Z,3.39
2018-01-17T11:49:48.486Z,3.36
2018-01-17T11:52:17.751Z,3.34
2018-01-17T11:54:46.950Z,3.37
2018-01-17T11:57:16.248Z,3.35
2018-01-17T11:59:45.450Z,3.33
2018-01-17T12:02:14.703Z,3.25
2018-01-17T12:04:43.936Z,3.27
2018-01-17T12:07:13.376Z,3.25
2018-01-17T12:09:42.673Z,3.23
2018-01-17T12:12:11.839Z,3.18
2018-01-17T12:14:41.271Z,3.11
2018-01-17T12:17:10.530Z,3.06
2018-01-17T12:19:39.725Z,3.04
2018-01-17T12:22:08.964Z,3.01
2018-01-17T12:24:38.228Z,2.92
2018-01-17T12:27:07.464Z,2.94
2018-01-17T12:29:36.746Z,2.96
2018-01-17T12:32:06.012Z,3.01
2018-01-17T12:37:11.195Z,3.12
2018-01-17T12:39:40.484Z,3.20
2018-01-17T12:42:09.831Z,3.28
2018-01-17T12:44:39.804Z,3.39
2018-01-17T12:47:08.993Z,3.42
2018-01-17T12:49:38.405Z,3.46
2018-01-17T12:52:07.674Z,3.43
2018-01-17T12:54:36.908Z,3.46
2018-01-17T12:57:06.145Z,3.53
2018-01-17T12:59:36.122Z,3.60
2018-01-17T13:02:05.353Z,3.66
2018-01-17T13:04:35.355Z,3.74
2018-01-17T13:07:04.574Z,3.84
2018-01-17T13:09:33.850Z,3.93
2018-01-17T13:12:03.838Z,3.96
2018-01-17T13:14:33.130Z,4.02
2018-01-17T13:17:02.374Z,4.03
2018-01-17T13:19:32.400Z,4.05
2018-01-17T13:22:02.416Z,4.08
2018-01-17T13:24:32.515Z,4.14
2018-01-17T13:27:01.744Z,4.18
2018-01-17T13:29:31.755Z,4.19
2018-01-17T13:32:01.027Z,4.22
2018-01-17T13:34:31.027Z,4.20
2018-01-17T13:37:00.507Z,4.17
2018-01-17T13:39:29.711Z,4.16
2018-01-17T13:41:58.974Z,4.14
2018-01-17T13:44:28.166Z,4.08
2018-01-17T13:46:58.483Z,4.08
2018-01-17T13:49:28.576Z,3.98
2018-01-17T13:51:57.825Z,3.96
2018-01-17T13:54:27.073Z,3.85
2018-01-17T13:56:56.286Z,3.76
2018-01-17T13:59:25.527Z,3.76
2018-01-17T14:01:54.782Z,3.73
2018-01-17T14:04:23.986Z,3.74
2018-01-17T14:06:54.022Z,3.74
2018-01-17T14:09:23.243Z,3.74
2018-01-17T14:11:52.454Z,3.78
2018-01-17T14:14:21.754Z,3.80
2018-01-17T14:16:50.956Z,3.83
2018-01-17T14:19:20.254Z,3.63
2018-01-17T14:21:50.456Z,3.44
2018-01-17T14:24:19.890Z,3.38
2018-01-17T14:26:49.099Z,3.34
2018-01-17T14:29:18.344Z,3.29
2018-01-17T14:31:47.559Z,3.25
2018-01-17T14:34:16.771Z,3.27
2018-01-17T14:36:46.483Z,3.29
2018-01-17T14:39:16.471Z,3.29
2018-01-17T14:41:45.975Z,3.35
2018-01-17T14:44:15.222Z,3.39
2018-01-17T14:46:44.473Z,3.44
2018-01-17T14:49:13.658Z,3.40
2018-01-17T14:51:43.073Z,3.42
2018-01-17T14:54:12.331Z,3.42
2018-01-17T14:56:42.363Z,3.45
2018-01-17T14:59:11.570Z,3.45
2018-01-17T15:01:40.840Z,3.47
2018-01-17T15:04:11.574Z,3.48
2018-01-17T15:06:41.840Z,3.51
2018-01-17T15:09:11.227Z,3.48
2018-01-17T15:11:40.550Z,3.46
2018-01-17T15:14:10.106Z,3.50
2018-01-17T15:16:39.350Z,3.52
2018-01-17T15:19:08.552Z,3.56
2018-01-17T15:21:37.741Z,3.58
2018-01-17T15:24:06.966Z,3.66
2018-01-17T15:26:36.245Z,3.69
2018-01-17T15:29:05.571Z,3.75
2018-01-17T15:31:34.815Z,3.80
2018-01-17T15:34:04.834Z,3.81
2018-01-17T15:36:34.799Z,3.80
2018-01-17T15:39:04.038Z,3.80
2018-01-17T15:41:33.258Z,3.80
2018-01-17T15:44:02.505Z,3.81
2018-01-17T15:46:31.723Z,3.81
2018-01-17T15:49:01.734Z,3.79
2018-01-17T15:51:31.722Z,3.79
2018-01-17T15:54:01.020Z,3.76
2018-01-17T15:56:30.447Z,3.76
2018-01-17T15:58:59.685Z,3.77
2018-01-17T16:01:30.859Z,3.77
2018-01-17T16:04:00.090Z,3.75
2018-01-17T16:06:29.309Z,3.73
2018-01-17T16:08:58.534Z,3.75
2018-01-17T16:11:27.815Z,3.78
2018-01-17T16:13:57.009Z,3.79
2018-01-17T16:16:26.290Z,3.77
2018-01-17T16:18:56.339Z,3.76
2018-01-17T16:21:25.591Z,3.79
2018-01-17T16:23:55.602Z,3.80
2018-01-17T16:26:24.828Z,3.87
2018-01-17T16:28:55.074Z,3.89
2018-01-17T16:31:25.030Z,3.89
2018-01-17T16:33:55.034Z,3.87
2018-01-17T16:36:24.337Z,3.92
2018-01-17T16:38:53.544Z,3.91
2018-01-17T16:41:22.745Z,3.83
2018-01-17T16:43:52.100Z,3.86
2018-01-17T16:46:21.353Z,3.82
2018-01-17T16:48:50.681Z,3.78
2018-01-17T16:51:20.647Z,3.77
2018-01-17T16:53:49.861Z,3.76
2018-01-17T16:56:19.854Z,3.76
2018-01-17T16:58:50.705Z,3.75
2018-01-17T17:01:19.926Z,3.75
2018-01-17T17:03:49.913Z,3.78
2018-01-17T17:06:19.133Z,3.81
2018-01-17T17:08:48.577Z,3.85
2018-01-17T17:11:17.933Z,3.87
2018-01-17T17:13:47.174Z,3.91
2018-01-17T17:16:16.391Z,3.96
2018-01-17T17:18:45.676Z,4.03
2018-01-17T17:21:14.843Z,4.05
2018-01-17T17:23:44.067Z,4.03
2018-01-17T17:26:13.291Z,4.02
2018-01-17T17:28:42.542Z,4.04
2018-01-17T17:31:11.792Z,4.00
2018-01-17T17:33:41.936Z,3.90
2018-01-17T17:36:11.933Z,3.84
2018-01-17T17:38:41.184Z,3.73
2018-01-17T17:41:10.438Z,3.66
2018-01-17T17:43:41.832Z,3.54
2018-01-17T17:46:11.836Z,3.42
2018-01-17T17:48:41.083Z,3.34
2018-01-17T17:51:10.410Z,3.32
2018-01-17T17:53:39.612Z,3.35
2018-01-17T17:56:08.839Z,3.39
2018-01-17T17:58:38.051Z,3.42
2018-01-17T18:01:07.262Z,3.40
2018-01-17T18:03:36.499Z,3.44
2018-01-17T18:06:07.728Z,3.43
2018-01-17T18:08:36.959Z,3.47
2018-01-17T18:11:06.996Z,3.53
2018-01-17T18:13:37.672Z,3.59
2018-01-17T18:16:06.891Z,3.63
2018-01-17T18:18:36.118Z,3.68
2018-01-17T18:21:05.334Z,3.75
2018-01-17T18:23:34.544Z,3.79
2018-01-17T18:26:03.909Z,3.82
2018-01-17T18:28:33.231Z,3.84
2018-01-17T18:31:02.517Z,3.86
2018-01-17T18:33:31.753Z,3.92
2018-01-17T18:36:01.149Z,3.91
2018-01-17T18:38:30.343Z,3.96
2018-01-17T18:40:59.579Z,3.98
2018-01-17T18:43:28.830Z,4.00
2018-01-17T18:45:58.046Z,4.02
2018-01-17T18:48:27.257Z,4.01
2018-01-17T18:50:56.508Z,4.04
2018-01-17T18:53:25.863Z,4.09
2018-01-17T18:55:55.161Z,4.03
2018-01-17T18:58:25.367Z,4.05
2018-01-17T19:00:54.798Z,4.04
2018-01-17T19:03:24.061Z,4.02
2018-01-17T19:05:53.294Z,4.06
2018-01-17T19:08:22.789Z,4.09
2018-01-17T19:10:53.563Z,4.09
2018-01-17T19:13:22.757Z,4.04
2018-01-17T19:15:51.962Z,4.03
2018-01-17T19:18:21.185Z,4.03
2018-01-17T19:20:50.408Z,4.00
2018-01-17T19:23:20.420Z,4.05
2018-01-17T19:25:49.620Z,4.08
2018-01-17T19:28:18.870Z,4.09
2018-01-17T19:30:48.081Z,4.09
2018-01-17T19:33:17.409Z,4.14
2018-01-17T19:35:47.465Z,4.15
2018-01-17T19:38:16.663Z,4.13
2018-01-17T19:40:46.648Z,4.10
2018-01-17T19:43:16.735Z,4.11
2018-01-17T19:45:46.048Z,4.10
2018-01-17T19:48:15.364Z,4.08
2018-01-17T19:50:46.182Z,4.07
2018-01-17T19:53:15.422Z,4.04
2018-01-17T19:55:45.439Z,4.01
2018-01-17T19:58:15.437Z,4.00
2018-01-17T20:00:45.453Z,3.98
2018-01-17T20:03:14.660Z,3.98
2018-01-17T20:05:44.087Z,3.99
2018-01-17T20:08:13.327Z,4.00
2018-01-17T20:10:43.344Z,3.98
2018-01-17T20:13:12.568Z,3.99
2018-01-17T20:15:42.617Z,3.99
2018-01-17T20:18:12.552Z,3.95
2018-01-17T20:20:41.836Z,3.94
2018-01-17T20:23:11.042Z,3.92
2018-01-17T20:25:40.267Z,3.92
2018-01-17T20:28:09.487Z,3.96
2018-01-17T20:30:38.786Z,3.96
2018-01-17T20:33:08.994Z,3.97
2018-01-17T20:35:38.289Z,3.96
2018-01-17T20:38:07.504Z,3.98
2018-01-17T20:40:36.727Z,4.00
2018-01-17T20:43:05.923Z,4.03
2018-01-17T20:45:35.973Z,4.06
2018-01-17T20:48:05.204Z,4.09
2018-01-17T20:50:34.449Z,4.04
2018-01-17T20:53:04.434Z,4.06
2018-01-17T20:55:34.731Z,4.05
2018-01-17T20:58:03.969Z,4.07
2018-01-17T21:00:34.769Z,4.09
2018-01-17T21:03:04.007Z,4.15
2018-01-17T21:05:34.000Z,4.17
2018-01-17T21:08:03.195Z,4.19
2018-01-17T21:10:33.190Z,4.22
2018-01-17T21:13:03.930Z,4.20
2018-01-17T21:15:33.216Z,4.24
2018-01-17T21:18:02.452Z,4.17
2018-01-17T21:20:32.445Z,4.20
2018-01-17T21:23:02.733Z,4.24
2018-01-17T21:25:32.030Z,4.24
2018-01-17T21:28:01.271Z,4.21
2018-01-17T21:30:30.671Z,4.23
2018-01-17T21:32:59.906Z,4.25
2018-01-17T21:35:29.155Z,4.24
2018-01-17T21:37:58.368Z,4.29
2018-01-17T21:40:27.603Z,4.25
2018-01-17T21:43:03.240Z,4.20
2018-01-17T21:45:38.673Z,4.16
2018-01-17T21:48:08.843Z,4.12
2018-01-17T21:50:38.058Z,4.09
2018-01-17T21:53:07.359Z,3.99
2018-01-17T21:55:36.703Z,3.98
2018-01-17T21:58:06.040Z,3.97
2018-01-17T22:00:35.261Z,3.95
2018-01-17T22:03:04.488Z,3.98
2018-01-17T22:05:34.473Z,3.95
2018-01-17T22:08:03.803Z,3.95
2018-01-17T22:10:33.773Z,3.92
2018-01-17T22:13:03.001Z,3.95
2018-01-17T22:15:33.067Z,3.94
2018-01-17T22:18:02.312Z,3.93
2018-01-17T22:20:31.568Z,3.93
2018-01-17T22:23:00.921Z,3.89
2018-01-17T22:25:30.374Z,3.87
2018-01-17T22:27:59.612Z,3.87
2018-01-17T22:30:28.834Z,3.92
2018-01-17T22:32:58.842Z,3.93
2018-01-17T22:35:28.385Z,3.95
2018-01-17T22:37:57.604Z,3.96
2018-01-17T22:40:26.863Z,3.98
2018-01-17T22:42:56.858Z,4.02
2018-01-17T22:45:26.912Z,4.01
2018-01-17T22:47:56.193Z,4.02
2018-01-17T22:50:26.158Z,4.01
2018-01-17T22:52:55.355Z,4.01
2018-01-17T22:55:24.574Z,4.03
2018-01-17T22:57:53.759Z,4.07
2018-01-17T23:00:23.016Z,4.07
2018-01-17T23:02:52.291Z,4.08
2018-01-17T23:05:21.735Z,4.08
2018-01-17T23:07:51.010Z,4.05
2018-01-17T23:10:21.055Z,4.09
2018-01-17T23:12:50.355Z,4.11
2018-01-17T23:15:19.575Z,4.12
2018-01-17T23:17:48.794Z,4.18
2018-01-17T23:20:18.773Z,4.20
2018-01-17T23:22:48.011Z,4.27
2018-01-17T23:25:17.966Z,4.27
2018-01-17T23:27:47.301Z,4.26
2018-01-17T23:30:16.548Z,4.32
2018-01-17T23:32:45.796Z,4.36
2018-01-17T23:35:15.160Z,4.34
2018-01-17T23:37:44.641Z,4.35
2018-01-17T23:40:13.899Z,4.33
2018-01-17T23:42:43.274Z,4.37
2018-01-17T23:45:13.261Z,4.35
2018-01-17T23:47:43.217Z,4.37
2018-01-17T23:50:12.444Z,4.37
2018-01-17T23:52:42.758Z,4.41
2018-01-17T23:55:12.030Z,4.43
2018-01-17T23:57:41.258Z,4.37
